createdAt,value
2022-07-25T00:01:43.703Z,98495.50
2022-07-25T00:04:12.288Z,98494.66
2022-07-25T00:06:39.501Z,98466.38
2022-07-25T00:09:06.459Z,98477.72
2022-07-25T00:11:33.079Z,98459.13
2022-07-25T00:13:59.531Z,98436.66
2022-07-25T00:16:26.297Z,98464.75
2022-07-25T00:18:52.753Z,98451.31
2022-07-25T00:21:19.791Z,98463.25
2022-07-25T00:23:46.242Z,98450.25
2022-07-25T00:26:12.825Z,98449.22
2022-07-25T00:28:39.304Z,98433.50
2022-07-25T00:31:06.169Z,98445.69
2022-07-25T00:33:32.998Z,98432.94
2022-07-25T00:35:59.755Z,98438.41
2022-07-25T00:38:26.194Z,98422.53
2022-07-25T00:40:54.559Z,98429.31
2022-07-25T00:43:22.413Z,98434.28
2022-07-25T00:45:48.834Z,98406.84
2022-07-25T00:48:15.239Z,98434.28
2022-07-25T00:50:41.808Z,98428.31
2022-07-25T00:53:08.237Z,98409.31
2022-07-25T00:55:34.750Z,98419.84
2022-07-25T00:58:01.513Z,98423.91
2022-07-25T01:00:28.440Z,98417.56
2022-07-25T01:02:55.120Z,98415.06
2022-07-25T01:05:21.652Z,98407.59
2022-07-25T01:07:48.323Z,98421.63
2022-07-25T01:10:14.930Z,98394.22
2022-07-25T01:12:52.800Z,98412.09
2022-07-25T01:15:21.284Z,98397.22
2022-07-25T01:17:48.252Z,98397.66
2022-07-25T01:20:23.694Z,98381.09
2022-07-25T01:22:51.358Z,98390.25
2022-07-25T01:25:19.411Z,98397.66
2022-07-25T01:27:51.242Z,98370.03
2022-07-25T01:30:22.378Z,98384.00
2022-07-25T01:32:48.841Z,98377.22
2022-07-25T01:35:16.291Z,98365.00
2022-07-25T01:37:45.402Z,98362.47
2022-07-25T01:40:14.300Z,98310.16
2022-07-25T01:42:41.973Z,98344.78
2022-07-25T01:45:09.487Z,98339.34
2022-07-25T01:47:36.472Z,98331.78
2022-07-25T01:50:04.503Z,98338.56
2022-07-25T01:52:31.481Z,98329.28
2022-07-25T01:54:57.985Z,98323.28
2022-07-25T01:57:27.417Z,98312.56
2022-07-25T01:59:59.558Z,98335.63
2022-07-25T02:02:26.211Z,98333.31
2022-07-25T02:04:53.043Z,98336.41
2022-07-25T02:07:20.112Z,98304.63
2022-07-25T02:09:52.093Z,98309.53
2022-07-25T02:12:21.258Z,98306.53
2022-07-25T02:14:47.676Z,98259.97
2022-07-25T02:17:14.174Z,98296.38
2022-07-25T02:19:40.655Z,98294.22
2022-07-25T02:22:07.593Z,98286.09
2022-07-25T02:24:34.003Z,98262.34
2022-07-25T02:27:01.021Z,98286.72
2022-07-25T02:29:27.546Z,98284.03
2022-07-25T02:31:54.220Z,98282.19
2022-07-25T02:34:21.092Z,98258.50
2022-07-25T02:36:47.610Z,98272.88
2022-07-25T02:39:14.199Z,98227.94
2022-07-25T02:41:40.823Z,98269.97
2022-07-25T02:44:07.612Z,98263.97
2022-07-25T02:46:35.002Z,98263.97
2022-07-25T02:49:01.863Z,98253.94
2022-07-25T02:51:28.370Z,98213.22
2022-07-25T02:53:57.582Z,98244.44
2022-07-25T02:56:25.216Z,98239.28
2022-07-25T02:58:51.864Z,98217.03
2022-07-25T03:01:18.341Z,98239.69
2022-07-25T03:03:45.028Z,98198.56
2022-07-25T03:06:11.804Z,98225.41
2022-07-25T03:08:38.253Z,98220.44
2022-07-25T03:11:04.777Z,98215.31
2022-07-25T03:13:33.077Z,98216.53
2022-07-25T03:15:59.777Z,98218.53
2022-07-25T03:18:26.266Z,98212.44
2022-07-25T03:20:52.740Z,98216.81
2022-07-25T03:23:19.190Z,98221.13
2022-07-25T03:25:45.664Z,98216.22
2022-07-25T03:28:12.071Z,98213.91
2022-07-25T03:30:41.356Z,98202.28
2022-07-25T03:33:07.770Z,98203.38
2022-07-25T03:35:35.264Z,98203.44
2022-07-25T03:38:02.222Z,98190.47
2022-07-25T03:40:28.926Z,98177.41
2022-07-25T03:42:55.492Z,98196.81
2022-07-25T03:45:22.088Z,98194.41
2022-07-25T03:47:48.506Z,98171.94
2022-07-25T03:50:15.717Z,98131.13
2022-07-25T03:52:42.396Z,98176.25
2022-07-25T03:55:10.655Z,98168.59
2022-07-25T03:57:37.819Z,98162.00
2022-07-25T04:00:07.245Z,98158.38
2022-07-25T04:02:34.038Z,98150.13
2022-07-25T04:05:00.707Z,98153.81
2022-07-25T04:07:27.362Z,98149.53
2022-07-25T04:09:53.844Z,98134.91
2022-07-25T04:12:20.560Z,98142.78
2022-07-25T04:14:47.020Z,98150.31
2022-07-25T04:17:13.610Z,98152.44
2022-07-25T04:19:40.666Z,98161.09
2022-07-25T04:22:07.129Z,98171.00
2022-07-25T04:24:33.544Z,98166.94
2022-07-25T04:27:00.046Z,98186.72
2022-07-25T04:29:26.555Z,98181.38
2022-07-25T04:31:52.992Z,98176.09
2022-07-25T04:34:20.380Z,98175.22
2022-07-25T04:36:46.962Z,98174.41
2022-07-25T04:39:13.377Z,98176.22
2022-07-25T04:41:39.805Z,98199.81
2022-07-25T04:44:08.345Z,98204.56
2022-07-25T04:46:35.392Z,98203.38
2022-07-25T04:49:01.950Z,98204.66
2022-07-25T04:51:28.408Z,98195.63
2022-07-25T04:53:55.204Z,98214.16
2022-07-25T04:56:21.813Z,98226.56
2022-07-25T04:58:48.458Z,98231.28
2022-07-25T05:01:15.265Z,98229.84
2022-07-25T05:03:41.835Z,98216.66
2022-07-25T05:06:16.968Z,98226.00
2022-07-25T05:08:43.424Z,98243.91
2022-07-25T05:11:09.987Z,98242.69
2022-07-25T05:13:36.403Z,98203.94
2022-07-25T05:16:03.191Z,98232.59
2022-07-25T05:18:29.767Z,98211.78
2022-07-25T05:20:56.173Z,98235.28
2022-07-25T05:23:22.598Z,98232.38
2022-07-25T05:25:49.369Z,98230.78
2022-07-25T05:28:17.616Z,98229.31
2022-07-25T05:30:44.196Z,98244.56
2022-07-25T05:33:10.636Z,98233.63
2022-07-25T05:35:37.111Z,98249.47
2022-07-25T05:38:03.563Z,98270.69
2022-07-25T05:40:30.273Z,98261.00
2022-07-25T05:43:00.970Z,98270.00
2022-07-25T05:45:29.255Z,98277.97
2022-07-25T05:47:55.642Z,98284.56
2022-07-25T05:50:22.187Z,98286.34
2022-07-25T05:52:48.599Z,98306.22
2022-07-25T05:55:16.911Z,98314.78
2022-07-25T05:57:43.339Z,98334.47
2022-07-25T06:00:10.400Z,98382.25
2022-07-25T06:02:36.917Z,98376.50
2022-07-25T06:05:03.771Z,98405.31
2022-07-25T06:07:30.303Z,98410.91
2022-07-25T06:09:57.831Z,98392.75
2022-07-25T06:12:24.439Z,98410.94
2022-07-25T06:14:51.114Z,98412.47
2022-07-25T06:17:17.547Z,98431.66
2022-07-25T06:19:43.988Z,98445.59
2022-07-25T06:22:11.382Z,98427.19
2022-07-25T06:24:38.200Z,98441.25
2022-07-25T06:27:05.108Z,98439.28
2022-07-25T06:29:31.543Z,98434.69
2022-07-25T06:31:58.061Z,98440.22
2022-07-25T06:34:28.483Z,98450.56
2022-07-25T06:36:57.355Z,98465.00
2022-07-25T06:39:24.749Z,98462.03
2022-07-25T06:41:52.076Z,98479.34
2022-07-25T06:44:18.485Z,98486.22
2022-07-25T06:46:45.383Z,98446.75
2022-07-25T06:49:11.990Z,98477.91
2022-07-25T06:51:38.446Z,98478.53
2022-07-25T06:54:05.167Z,98465.28
2022-07-25T06:56:32.938Z,98472.56
2022-07-25T06:59:00.446Z,98463.88
2022-07-25T07:01:27.505Z,98471.63
2022-07-25T07:03:54.123Z,98474.28
2022-07-25T07:06:20.773Z,98472.38
2022-07-25T07:08:47.448Z,98468.97
2022-07-25T07:11:15.588Z,98470.91
2022-07-25T07:13:42.475Z,98466.13
2022-07-25T07:16:09.089Z,98446.94
2022-07-25T07:18:35.666Z,98447.41
2022-07-25T07:21:02.354Z,98462.53
2022-07-25T07:23:28.999Z,98471.94
2022-07-25T07:25:55.828Z,98478.03
2022-07-25T07:28:22.353Z,98465.41
2022-07-25T07:33:37.771Z,98457.22
2022-07-25T07:36:05.337Z,98467.56
2022-07-25T07:38:31.854Z,98454.97
2022-07-25T07:40:58.366Z,98454.41
2022-07-25T07:43:29.634Z,98464.69
2022-07-25T07:45:56.900Z,98457.69
2022-07-25T07:48:24.088Z,98466.13
2022-07-25T07:50:50.496Z,98451.81
2022-07-25T07:53:16.899Z,98447.00
2022-07-25T07:55:48.197Z,98418.97
2022-07-25T07:58:17.153Z,98444.41
2022-07-25T08:00:49.152Z,98443.25
2022-07-25T08:03:20.623Z,98439.97
2022-07-25T08:05:48.998Z,98446.56
2022-07-25T08:08:16.516Z,98458.22
2022-07-25T08:10:48.317Z,98450.19
2022-07-25T08:13:21.563Z,98453.28
2022-07-25T08:15:53.568Z,98461.25
2022-07-25T08:18:20.074Z,98443.88
2022-07-25T08:20:47.468Z,98452.75
2022-07-25T08:23:14.056Z,98451.81
2022-07-25T08:25:42.328Z,98429.06
2022-07-25T08:28:09.847Z,98441.31
2022-07-25T08:30:38.248Z,98448.09
2022-07-25T08:33:06.759Z,98438.75
2022-07-25T08:35:34.322Z,98424.94
2022-07-25T08:38:01.873Z,98433.78
2022-07-25T08:40:30.444Z,98427.16
2022-07-25T08:42:58.526Z,98414.38
2022-07-25T08:45:26.786Z,98417.28
2022-07-25T08:47:57.029Z,98389.09
2022-07-25T08:50:27.105Z,98422.50
2022-07-25T08:53:04.890Z,98420.28
2022-07-25T08:55:40.731Z,98401.22
2022-07-25T08:58:11.804Z,98405.34
2022-07-25T09:00:39.338Z,98407.03
2022-07-25T09:03:06.633Z,98397.41
2022-07-25T09:05:34.097Z,98404.84
2022-07-25T09:08:10.228Z,98398.81
2022-07-25T09:10:37.760Z,98391.06
2022-07-25T09:13:14.008Z,98392.97
2022-07-25T09:15:52.619Z,98392.59
2022-07-25T09:18:23.918Z,98373.75
2022-07-25T09:20:54.469Z,98376.56
2022-07-25T09:23:34.724Z,98379.47
2022-07-25T09:26:08.440Z,98353.06
2022-07-25T09:28:43.962Z,98377.38
2022-07-25T09:31:11.519Z,98378.25
2022-07-25T09:33:49.878Z,98326.75
2022-07-25T09:36:16.404Z,98367.84
2022-07-25T09:39:03.345Z,98378.91
2022-07-25T09:41:40.727Z,98368.31
2022-07-25T09:44:17.926Z,98367.78
2022-07-25T09:46:44.891Z,98374.03
2022-07-25T09:49:14.584Z,98360.94
2022-07-25T09:51:42.060Z,98373.78
2022-07-25T09:54:09.056Z,98342.25
2022-07-25T09:56:37.446Z,98351.31
2022-07-25T09:59:05.377Z,98343.97
2022-07-25T10:01:39.417Z,98341.81
2022-07-25T10:04:21.991Z,98335.38
2022-07-25T10:07:07.494Z,98309.75
2022-07-25T10:09:33.944Z,98338.13
2022-07-25T10:12:09.168Z,98340.19
2022-07-25T10:14:39.161Z,98326.91
2022-07-25T10:17:06.390Z,98335.19
2022-07-25T10:19:49.493Z,98333.31
2022-07-25T10:22:29.415Z,98326.56
2022-07-25T10:25:12.570Z,98326.16
2022-07-25T10:27:44.696Z,98308.84
2022-07-25T10:30:20.365Z,98309.41
2022-07-25T10:32:55.848Z,98296.13
2022-07-25T10:35:22.330Z,98294.84
2022-07-25T10:37:51.415Z,98291.06
2022-07-25T10:40:34.304Z,98276.53
2022-07-25T10:43:21.777Z,98289.09
2022-07-25T10:46:00.274Z,98295.69
2022-07-25T10:48:38.629Z,98283.69
2022-07-25T10:51:11.326Z,98264.75
2022-07-25T10:53:46.313Z,98293.13
2022-07-25T10:56:24.946Z,98284.56
2022-07-25T10:58:55.425Z,98271.56
2022-07-25T11:01:31.021Z,98274.34
2022-07-25T11:04:00.413Z,98278.56
2022-07-25T11:06:33.257Z,98252.66
2022-07-25T11:09:02.360Z,98275.59
2022-07-25T11:11:48.051Z,98274.28
2022-07-25T11:14:24.174Z,98261.34
2022-07-25T11:16:55.250Z,98273.50
2022-07-25T11:19:24.730Z,98244.22
2022-07-25T11:21:54.822Z,98254.41
2022-07-25T11:24:22.486Z,98252.78
2022-07-25T11:26:52.114Z,98238.78
2022-07-25T11:29:24.204Z,98250.19
2022-07-25T11:31:55.370Z,98241.94
2022-07-25T11:34:32.066Z,98247.25
2022-07-25T11:37:04.002Z,98252.56
2022-07-25T11:39:35.412Z,98248.16
2022-07-25T11:42:11.113Z,98228.41
2022-07-25T11:44:48.056Z,98243.38
2022-07-25T11:47:28.977Z,98246.38
2022-07-25T11:50:01.507Z,98253.22
2022-07-25T11:52:31.125Z,98217.88
2022-07-25T11:55:09.209Z,98230.66
2022-07-25T11:57:38.177Z,98223.44
2022-07-25T12:00:35.151Z,98228.97
2022-07-25T12:03:18.725Z,98224.59
2022-07-25T12:05:46.061Z,98226.22
2022-07-25T12:08:17.353Z,98222.41
2022-07-25T12:10:45.321Z,98238.19
2022-07-25T12:13:25.715Z,98212.53
2022-07-25T12:15:52.503Z,98208.72
2022-07-25T12:18:19.452Z,98234.63
2022-07-25T12:20:45.880Z,98218.44
2022-07-25T12:23:13.786Z,98234.91
2022-07-25T12:25:43.498Z,98217.69
2022-07-25T12:28:15.355Z,98173.88
2022-07-25T12:30:43.601Z,98211.81
2022-07-25T12:33:14.221Z,98211.31
2022-07-25T12:35:42.569Z,98204.13
2022-07-25T12:38:09.268Z,98210.59
2022-07-25T12:40:35.880Z,98185.19
2022-07-25T12:43:03.785Z,98197.16
2022-07-25T12:45:30.296Z,98211.41
2022-07-25T12:47:56.775Z,98204.47
2022-07-25T12:50:25.690Z,98209.47
2022-07-25T12:52:52.223Z,98200.88
2022-07-25T12:55:20.280Z,98196.56
2022-07-25T12:57:49.668Z,98187.34
2022-07-25T13:00:20.435Z,98151.06
2022-07-25T13:02:48.181Z,98181.09
2022-07-25T13:05:14.832Z,98185.81
2022-07-25T13:07:41.433Z,98174.25
2022-07-25T13:10:08.315Z,98165.66
2022-07-25T13:12:34.760Z,98174.88
2022-07-25T13:15:01.738Z,98170.34
2022-07-25T13:17:28.351Z,98175.06
2022-07-25T13:19:58.244Z,98168.25
2022-07-25T13:22:26.036Z,98168.88
2022-07-25T13:24:54.102Z,98162.72
2022-07-25T13:27:21.676Z,98164.81
2022-07-25T13:29:53.842Z,98166.63
2022-07-25T13:32:21.208Z,98165.94
2022-07-25T13:34:47.684Z,98145.88
2022-07-25T13:37:15.054Z,98151.53
2022-07-25T13:39:42.296Z,98155.63
2022-07-25T13:42:08.871Z,98159.66
2022-07-25T13:44:36.293Z,98145.91
2022-07-25T13:47:02.771Z,98150.72
2022-07-25T13:49:32.894Z,98148.09
2022-07-25T13:52:00.507Z,98143.78
2022-07-25T13:54:26.973Z,98152.38
2022-07-25T13:56:54.217Z,98143.44
2022-07-25T13:59:21.765Z,98174.38
2022-07-25T14:01:50.578Z,98166.59
2022-07-25T14:04:17.418Z,98176.38
2022-07-25T14:06:44.265Z,98161.84
2022-07-25T14:09:11.517Z,98168.25
2022-07-25T14:11:38.423Z,98155.00
2022-07-25T14:14:04.837Z,98152.97
2022-07-25T14:16:31.294Z,98154.41
2022-07-25T14:18:58.078Z,98146.16
2022-07-25T14:21:25.487Z,98161.78
2022-07-25T14:23:52.360Z,98178.97
2022-07-25T14:26:18.805Z,98178.41
2022-07-25T14:28:45.622Z,98203.06
2022-07-25T14:31:12.197Z,98238.44
2022-07-25T14:33:40.109Z,98234.66
2022-07-25T14:36:08.071Z,98249.09
2022-07-25T14:38:34.525Z,98254.13
2022-07-25T14:41:01.136Z,98257.13
2022-07-25T14:43:27.615Z,98232.97
2022-07-25T14:45:54.280Z,98228.00
2022-07-25T14:48:20.880Z,98227.91
2022-07-25T14:50:47.470Z,98235.91
2022-07-25T14:53:14.517Z,98244.31
2022-07-25T14:55:40.992Z,98224.13
2022-07-25T14:58:07.556Z,98182.75
2022-07-25T15:00:34.207Z,98202.78
2022-07-25T15:03:01.653Z,98179.09
2022-07-25T15:05:28.180Z,98181.88
2022-07-25T15:07:54.599Z,98199.00
2022-07-25T15:10:21.095Z,98205.31
2022-07-25T15:12:47.508Z,98211.88
2022-07-25T15:15:14.020Z,98199.84
2022-07-25T15:17:40.442Z,98188.69
2022-07-25T15:20:07.721Z,98212.09
2022-07-25T15:22:34.223Z,98183.03
2022-07-25T15:27:47.206Z,98214.00
2022-07-25T15:30:13.939Z,98219.44
2022-07-25T15:32:40.628Z,98215.09
2022-07-25T15:35:08.346Z,98211.81
2022-07-25T15:37:35.086Z,98204.78
2022-07-25T15:40:04.769Z,98204.75
2022-07-25T15:42:32.911Z,98216.44
2022-07-25T15:45:30.401Z,98214.00
2022-07-25T15:47:52.191Z,98217.66
2022-07-25T15:50:19.816Z,98219.31
2022-07-25T15:52:46.634Z,98219.03
2022-07-25T15:55:19.575Z,98221.88
2022-07-25T15:57:46.032Z,98210.63
2022-07-25T16:00:13.786Z,98195.66
2022-07-25T16:02:44.282Z,98210.81
2022-07-25T16:05:11.200Z,98211.81
2022-07-25T16:07:37.708Z,98201.72
2022-07-25T16:10:04.644Z,98199.56
2022-07-25T16:12:31.056Z,98189.78
2022-07-25T16:14:57.534Z,98188.66
2022-07-25T16:17:25.908Z,98176.13
2022-07-25T16:19:54.061Z,98178.94
2022-07-25T16:22:21.421Z,98173.50
2022-07-25T16:24:48.108Z,98172.97
2022-07-25T16:27:14.703Z,98163.97
2022-07-25T16:29:44.594Z,98149.09
2022-07-25T16:32:11.507Z,98169.63
2022-07-25T16:34:38.084Z,98174.84
2022-07-25T16:37:05.282Z,98175.56
2022-07-25T16:39:31.711Z,98161.72
2022-07-25T16:41:58.173Z,98160.06
2022-07-25T16:44:24.642Z,98141.47
2022-07-25T16:46:51.299Z,98158.50
2022-07-25T16:49:17.954Z,98147.59
2022-07-25T16:51:45.098Z,98145.00
2022-07-25T16:54:12.204Z,98133.66
2022-07-25T16:56:38.926Z,98135.91
2022-07-25T16:59:07.161Z,98133.50
2022-07-25T17:01:35.070Z,98123.84
2022-07-25T17:04:01.601Z,98105.41
2022-07-25T17:06:28.129Z,98125.47
2022-07-25T17:08:55.126Z,98109.47
2022-07-25T17:11:22.458Z,98126.97
2022-07-25T17:13:49.220Z,98115.25
2022-07-25T17:16:16.108Z,98105.84
2022-07-25T17:18:42.862Z,98108.03
2022-07-25T17:21:10.559Z,98106.34
2022-07-25T17:23:37.013Z,98108.25
2022-07-25T17:26:05.364Z,98101.78
2022-07-25T17:28:32.209Z,98090.38
2022-07-25T17:30:58.768Z,98089.34
2022-07-25T17:33:25.213Z,98112.53
2022-07-25T17:35:52.622Z,98119.97
2022-07-25T17:38:23.753Z,98129.88
2022-07-25T17:40:52.559Z,98114.03
2022-07-25T17:43:19.238Z,98092.00
2022-07-25T17:45:45.917Z,98095.44
2022-07-25T17:48:12.358Z,98094.00
2022-07-25T17:50:39.013Z,98101.56
2022-07-25T17:53:05.625Z,98102.66
2022-07-25T17:55:38.200Z,98120.66
2022-07-25T17:58:05.568Z,98135.38
2022-07-25T18:00:32.397Z,98131.09
2022-07-25T18:02:59.230Z,98145.25
2022-07-25T18:05:26.031Z,98151.31
2022-07-25T18:07:53.643Z,98149.75
2022-07-25T18:10:23.639Z,98124.25
2022-07-25T18:12:50.376Z,98100.31
2022-07-25T18:15:17.401Z,98137.63
2022-07-25T18:17:45.340Z,98110.66
2022-07-25T18:20:13.550Z,98127.00
2022-07-25T18:22:41.232Z,98119.41
2022-07-25T18:25:11.006Z,98161.78
2022-07-25T18:27:40.371Z,98163.97
2022-07-25T18:30:07.993Z,98197.97
2022-07-25T18:32:35.499Z,98195.47
2022-07-25T18:35:02.072Z,98178.75
2022-07-25T18:37:28.702Z,98142.41
2022-07-25T18:39:55.200Z,98087.56
2022-07-25T18:42:25.007Z,98083.44
2022-07-25T18:44:56.210Z,98081.94
2022-07-25T18:47:24.461Z,98096.53
2022-07-25T18:49:55.952Z,98099.09
2022-07-25T18:52:23.310Z,98094.75
2022-07-25T18:54:50.022Z,98099.28
2022-07-25T18:57:16.585Z,98077.53
2022-07-25T18:59:43.331Z,98069.88
2022-07-25T19:02:10.495Z,98046.38
2022-07-25T19:04:37.508Z,98035.25
2022-07-25T19:07:04.006Z,98012.59
2022-07-25T19:09:30.447Z,98034.84
2022-07-25T19:11:56.845Z,98030.97
2022-07-25T19:14:26.041Z,98026.25
2022-07-25T19:16:53.777Z,98048.63
2022-07-25T19:19:20.438Z,98051.72
2022-07-25T19:21:46.967Z,98050.47
2022-07-25T19:24:13.901Z,98044.03
2022-07-25T19:26:40.574Z,98042.16
2022-07-25T19:29:07.795Z,98048.06
2022-07-25T19:31:35.468Z,98054.31
2022-07-25T19:34:02.094Z,98048.91
2022-07-25T19:36:28.533Z,98056.22
2022-07-25T19:38:55.232Z,98053.50
2022-07-25T19:41:21.731Z,98074.63
2022-07-25T19:43:48.296Z,98081.34
2022-07-25T19:46:14.961Z,98062.06
2022-07-25T19:48:41.844Z,98045.03
2022-07-25T19:51:08.410Z,98077.28
2022-07-25T19:53:34.825Z,98084.50
2022-07-25T19:56:02.761Z,98097.75
2022-07-25T19:58:29.250Z,98089.22
2022-07-25T20:00:55.746Z,98102.31
2022-07-25T20:03:23.344Z,98100.69
2022-07-25T20:05:50.594Z,98105.19
2022-07-25T20:08:17.903Z,98121.72
2022-07-25T20:10:44.685Z,98126.88
2022-07-25T20:13:11.117Z,98136.84
2022-07-25T20:15:37.599Z,98103.56
2022-07-25T20:18:04.092Z,98129.69
2022-07-25T20:20:30.508Z,98152.41
2022-07-25T20:22:57.339Z,98133.19
2022-07-25T20:25:23.758Z,98132.38
2022-07-25T20:27:50.432Z,98135.97
2022-07-25T20:30:17.773Z,98117.22
2022-07-25T20:32:46.227Z,98116.53
2022-07-25T20:35:13.305Z,98115.44
2022-07-25T20:37:40.033Z,98112.59
2022-07-25T20:40:07.404Z,98127.34
2022-07-25T20:42:36.251Z,98129.00
2022-07-25T20:45:03.099Z,98125.00
2022-07-25T20:49:56.039Z,98140.59
2022-07-25T20:52:22.632Z,98161.88
2022-07-25T20:54:49.239Z,98175.19
2022-07-25T20:57:15.754Z,98183.19
2022-07-25T20:59:42.225Z,98198.09
2022-07-25T21:02:08.757Z,98197.59
2022-07-25T21:04:35.232Z,98192.69
2022-07-25T21:07:01.685Z,98228.91
2022-07-25T21:09:32.821Z,98208.22
2022-07-25T21:12:00.506Z,98234.44
2022-07-25T21:14:28.232Z,98245.81
2022-07-25T21:16:54.783Z,98243.03
2022-07-25T21:19:21.345Z,98268.22
2022-07-25T21:21:49.079Z,98261.50
2022-07-25T21:24:15.695Z,98261.66
2022-07-25T21:26:42.577Z,98263.28
2022-07-25T21:29:10.413Z,98266.22
2022-07-25T21:31:37.741Z,98265.06
2022-07-25T21:34:04.387Z,98257.94
2022-07-25T21:36:30.869Z,98261.81
2022-07-25T21:38:57.362Z,98248.44
2022-07-25T21:41:24.394Z,98271.69
2022-07-25T21:43:51.117Z,98263.13
2022-07-25T21:46:17.717Z,98278.84
2022-07-25T21:49:02.727Z,98277.91
2022-07-25T21:51:40.495Z,98284.34
2022-07-25T21:54:07.868Z,98266.88
2022-07-25T21:56:34.260Z,98297.16
2022-07-25T21:59:01.283Z,98304.66
2022-07-25T22:01:28.339Z,98272.19
2022-07-25T22:03:55.583Z,98311.94
2022-07-25T22:06:22.058Z,98306.66
2022-07-25T22:08:48.490Z,98323.31
2022-07-25T22:11:16.069Z,98327.31
2022-07-25T22:14:01.860Z,98323.22
2022-07-25T22:16:29.329Z,98295.66
2022-07-25T22:18:57.159Z,98309.47
2022-07-25T22:21:24.075Z,98323.22
2022-07-25T22:23:50.531Z,98336.13
2022-07-25T22:26:17.549Z,98333.53
2022-07-25T22:28:43.963Z,98352.91
2022-07-25T22:31:10.492Z,98344.44
2022-07-25T22:33:38.183Z,98356.75
2022-07-25T22:36:05.893Z,98365.66
2022-07-25T22:38:32.320Z,98353.56
2022-07-25T22:40:58.755Z,98350.59
2022-07-25T22:43:25.324Z,98356.69
2022-07-25T22:46:11.801Z,98350.59
2022-07-25T22:48:42.294Z,98366.53
2022-07-25T22:51:08.841Z,98344.00
2022-07-25T22:53:35.326Z,98334.97
2022-07-25T22:56:01.769Z,98340.34
2022-07-25T22:58:28.235Z,98331.44
2022-07-25T23:00:54.671Z,98328.50
2022-07-25T23:03:21.159Z,98312.91
2022-07-25T23:05:47.570Z,98315.09
2022-07-25T23:08:14.383Z,98291.34
2022-07-25T23:10:43.723Z,98307.22
2022-07-25T23:13:11.486Z,98292.41
2022-07-25T23:15:50.006Z,98287.53
2022-07-25T23:18:17.948Z,98304.84
2022-07-25T23:20:44.407Z,98335.09
2022-07-25T23:23:11.322Z,98364.94
2022-07-25T23:25:37.881Z,98389.34
2022-07-25T23:28:04.881Z,98424.56
2022-07-25T23:30:35.442Z,98440.19
2022-07-25T23:33:06.298Z,98460.22
2022-07-25T23:35:32.711Z,98402.50
2022-07-25T23:38:00.645Z,98472.47
2022-07-25T23:40:27.250Z,98476.34
2022-07-25T23:42:54.399Z,98477.66
2022-07-25T23:45:21.743Z,98470.19
2022-07-25T23:47:51.657Z,98473.97
2022-07-25T23:50:19.633Z,98462.47
2022-07-25T23:52:46.045Z,98453.50
2022-07-25T23:55:12.552Z,98465.41
2022-07-25T23:57:39.034Z,98453.91
